createdAt,value
2023-03-23T15:58:02.106Z,14.84
2023-03-23T16:00:29.654Z,14.91
2023-03-23T16:03:03.240Z,14.78
2023-03-23T16:05:30.000Z,14.78
2023-03-23T16:07:56.848Z,14.81
2023-03-23T16:10:24.770Z,14.71
2023-03-23T16:12:51.458Z,14.65
2023-03-23T16:15:18.951Z,14.61
2023-03-23T16:17:48.849Z,14.58
2023-03-23T16:20:19.553Z,14.58
2023-03-23T16:22:47.014Z,14.47
2023-03-23T16:25:14.335Z,14.54
2023-03-23T16:27:42.183Z,14.36
2023-03-23T16:30:23.391Z,14.37
2023-03-23T16:32:50.017Z,14.32
2023-03-23T16:35:18.766Z,14.46
2023-03-23T16:37:47.960Z,14.32
2023-03-23T16:40:16.420Z,14.25
2023-03-23T16:42:43.306Z,14.25
2023-03-23T16:45:10.674Z,14.13
2023-03-23T16:47:37.605Z,14.16
2023-03-23T16:50:11.731Z,14.10
2023-03-23T16:52:46.345Z,14.10
2023-03-23T16:55:14.747Z,14.02
2023-03-23T16:57:43.366Z,13.86
2023-03-23T17:00:16.320Z,13.90
2023-03-23T17:02:43.396Z,13.87
2023-03-23T17:05:11.229Z,13.71
2023-03-23T17:07:42.099Z,13.65
2023-03-23T17:10:17.088Z,13.61
2023-03-23T17:12:44.431Z,13.51
2023-03-23T17:15:11.717Z,13.49
2023-03-23T17:17:38.455Z,13.49
2023-03-23T17:20:06.610Z,13.36
2023-03-23T17:22:33.689Z,13.36
2023-03-23T17:25:00.494Z,13.32
2023-03-23T17:27:27.428Z,13.29
2023-03-23T17:29:54.028Z,13.25
2023-03-23T17:32:21.847Z,13.20
2023-03-23T17:34:48.424Z,13.21
2023-03-23T17:37:19.472Z,13.07
2023-03-23T17:39:47.599Z,13.08
2023-03-23T17:42:14.735Z,13.13
2023-03-23T17:44:41.973Z,13.06
2023-03-23T17:47:08.544Z,13.05
2023-03-23T17:49:39.262Z,13.05
2023-03-23T17:52:05.981Z,12.94
2023-03-23T17:54:32.571Z,12.94
2023-03-23T17:57:01.034Z,12.86
2023-03-23T17:59:29.217Z,12.91
2023-03-23T18:01:56.080Z,12.85
2023-03-23T18:04:22.738Z,12.84
2023-03-23T18:06:49.428Z,12.83
2023-03-23T18:09:16.095Z,12.74
2023-03-23T18:11:42.625Z,12.83
2023-03-23T18:14:09.169Z,12.80
2023-03-23T18:16:35.769Z,12.76
2023-03-23T18:19:02.318Z,12.74
2023-03-23T18:21:29.000Z,12.66
2023-03-23T18:23:59.493Z,12.62
2023-03-23T18:26:27.607Z,12.71
2023-03-23T18:28:54.450Z,12.71
2023-03-23T18:31:21.482Z,12.82
2023-03-23T18:33:50.829Z,12.78
2023-03-23T18:36:23.282Z,12.73
2023-03-23T18:38:50.466Z,12.74
2023-03-23T18:41:18.371Z,12.71
2023-03-23T18:43:50.880Z,12.75
2023-03-23T18:46:17.817Z,12.58
2023-03-23T18:48:44.444Z,12.68
2023-03-23T18:51:11.825Z,12.64
2023-03-23T18:53:38.323Z,12.62
2023-03-23T18:56:17.397Z,12.57
2023-03-23T18:58:44.956Z,12.63
2023-03-23T19:01:16.080Z,12.78
2023-03-23T19:03:43.470Z,12.67
2023-03-23T19:06:22.785Z,12.67
2023-03-23T19:08:50.318Z,12.64
2023-03-23T19:11:17.881Z,12.73
2023-03-23T19:13:58.445Z,12.72
2023-03-23T19:16:28.002Z,12.69
2023-03-23T19:18:54.488Z,12.72
2023-03-23T19:21:25.329Z,12.56
2023-03-23T19:23:53.303Z,12.58
2023-03-23T19:26:24.454Z,12.59
2023-03-23T19:31:24.867Z,12.65
2023-03-23T19:33:53.084Z,12.56
2023-03-23T19:36:21.437Z,12.51
2023-03-23T19:38:51.795Z,12.52
2023-03-23T19:41:19.391Z,12.58
2023-03-23T19:43:46.063Z,12.40
2023-03-23T19:46:13.611Z,12.40
2023-03-23T19:48:40.609Z,12.33
2023-03-23T19:51:09.342Z,12.39
2023-03-23T19:53:36.550Z,12.25
2023-03-23T19:56:04.920Z,12.31
2023-03-23T19:58:32.573Z,12.46
2023-03-23T20:01:01.776Z,12.33
2023-03-23T20:03:28.492Z,12.40
2023-03-23T20:06:02.953Z,12.40
2023-03-23T20:08:30.072Z,12.31
2023-03-23T20:11:08.952Z,12.30
2023-03-23T20:13:36.205Z,12.32
2023-03-23T20:16:02.737Z,12.34
2023-03-23T20:18:30.280Z,12.27
2023-03-23T20:21:08.990Z,12.28
2023-03-23T20:23:36.831Z,12.28
2023-03-23T20:26:13.563Z,12.32
2023-03-23T20:28:42.422Z,12.32
2023-03-23T20:31:16.958Z,12.21
2023-03-23T20:33:48.104Z,12.34
2023-03-23T20:36:36.073Z,12.14
2023-03-23T20:39:21.199Z,12.15
2023-03-23T20:41:50.896Z,12.02
2023-03-23T20:44:19.981Z,11.99
2023-03-23T20:46:49.083Z,12.13
2023-03-23T20:49:19.723Z,12.11
2023-03-23T20:51:47.054Z,12.09
2023-03-23T20:54:15.794Z,12.10
2023-03-23T20:56:43.588Z,12.04
2023-03-23T20:59:11.193Z,12.05
2023-03-23T21:01:40.020Z,12.11
2023-03-23T21:04:15.580Z,12.14
2023-03-23T21:06:44.303Z,12.22
2023-03-23T21:09:11.384Z,12.15
2023-03-23T21:11:38.166Z,12.16
2023-03-23T21:14:05.282Z,12.24
2023-03-23T21:16:31.794Z,12.14
2023-03-23T21:18:58.721Z,12.22
2023-03-23T21:21:34.761Z,12.22
2023-03-23T21:24:03.743Z,12.30
2023-03-23T21:26:30.883Z,12.26
2023-03-23T21:29:00.755Z,12.26
2023-03-23T21:31:33.561Z,12.29
2023-03-23T21:34:00.577Z,12.29
2023-03-23T21:36:28.032Z,12.28
2023-03-23T21:38:55.387Z,12.24
2023-03-23T21:41:22.816Z,12.27
2023-03-23T21:43:50.147Z,12.25
2023-03-23T21:46:18.319Z,12.28
2023-03-23T21:48:54.166Z,12.25
2023-03-23T21:51:24.318Z,12.19
2023-03-23T21:53:56.862Z,12.10
2023-03-23T21:56:27.212Z,12.07
2023-03-23T21:58:54.901Z,12.21
2023-03-23T22:01:22.251Z,12.07
2023-03-23T22:03:49.552Z,12.14
2023-03-23T22:06:26.278Z,12.19
2023-03-23T22:08:53.730Z,12.21
2023-03-23T22:11:23.409Z,12.26
2023-03-23T22:13:50.645Z,12.24
2023-03-23T22:16:20.347Z,12.19
2023-03-23T22:18:48.664Z,12.21
2023-03-23T22:21:17.281Z,12.21
2023-03-23T22:23:45.027Z,12.19
2023-03-23T22:26:12.703Z,12.27
2023-03-23T22:28:42.404Z,12.33
2023-03-23T22:31:19.061Z,12.30
2023-03-23T22:33:47.811Z,12.42
2023-03-23T22:36:15.132Z,12.42
2023-03-23T22:38:45.574Z,12.42
2023-03-23T22:41:21.663Z,12.48
2023-03-23T22:43:49.364Z,12.46
2023-03-23T22:46:16.410Z,12.44
2023-03-23T22:48:48.130Z,12.42
2023-03-23T22:51:17.116Z,12.32
2023-03-23T22:53:44.606Z,12.26
2023-03-23T22:56:12.040Z,12.19
2023-03-23T22:58:43.169Z,12.14
2023-03-23T23:01:16.366Z,12.24
2023-03-23T23:03:43.501Z,12.17
2023-03-23T23:06:12.044Z,12.21
2023-03-23T23:08:39.262Z,12.18
2023-03-23T23:11:06.634Z,12.14
2023-03-23T23:13:35.690Z,12.20
2023-03-23T23:16:02.574Z,12.22
2023-03-23T23:18:31.047Z,12.27
2023-03-23T23:21:00.108Z,12.25
2023-03-23T23:23:28.224Z,12.37
2023-03-23T23:25:54.783Z,12.47
2023-03-23T23:28:22.886Z,12.41
2023-03-23T23:30:50.495Z,12.38
2023-03-23T23:33:17.038Z,12.37
2023-03-23T23:35:43.632Z,12.42
2023-03-23T23:38:12.504Z,12.42
2023-03-23T23:40:41.319Z,12.37
2023-03-23T23:43:08.452Z,12.43
2023-03-23T23:45:34.931Z,12.40
2023-03-23T23:48:01.668Z,12.42
2023-03-23T23:50:28.662Z,12.47
2023-03-23T23:52:55.254Z,12.51
2023-03-23T23:55:22.046Z,12.43
2023-03-23T23:57:49.223Z,12.47
